Time;durP1;ratioP1;P1;durP2;ratioP2;P2;SDS_P1;SDS_P2;PMS_P1;PMS_P2;Temp;Humidity;BMP_temperature;BMP_pressure;BME280_temperature;BME280_humidity;BME280_pressure;Samples;Min_cycle;Max_cycle;Signal;HPM_P1;HPM_P2
2022/06/05 00:01:03;;;;;;;12.82;3.78;;;;;;;;;;5031006;28;20482;-38
2022/06/05 00:03:38;;;;;;;7.68;2.95;;;;;;;;;;5034864;28;20049;-38
2022/06/05 00:06:03;;;;;;;5.75;2.67;;;;;;;;;;5034815;28;20564;-38
2022/06/05 00:08:28;;;;;;;7.15;2.67;;;;;;;;;;5034873;28;20021;-42
2022/06/05 00:10:55;;;;;;;4.40;2.72;;;;;;;;;;5034683;28;20038;-38
2022/06/05 00:13:21;;;;;;;5.15;2.63;;;;;;;;;;5034565;28;20463;-38
2022/06/05 00:15:46;;;;;;;3.22;2.75;;;;;;;;;;5034680;28;20029;-39
2022/06/05 00:18:12;;;;;;;8.32;2.97;;;;;;;;;;5034720;28;20017;-38
2022/06/05 00:20:38;;;;;;;6.38;2.95;;;;;;;;;;5034781;28;20034;-38
2022/06/05 00:23:04;;;;;;;8.18;3.22;;;;;;;;;;5034818;28;20071;-38
2022/06/05 00:25:42;;;;;;;6.85;3.83;;;;;;;;;;5034509;28;20034;-39
2022/06/05 00:28:27;;;;;;;3.85;3.45;;;;;;;;;;5016659;28;20038;-39
2022/06/05 00:31:11;;;;;;;10.25;3.65;;;;;;;;;;5034241;28;20447;-39
2022/06/05 00:33:40;;;;;;;4.43;3.33;;;;;;;;;;5034432;28;20395;-39
2022/06/05 00:36:18;;;;;;;3.92;3.47;;;;;;;;;;5034592;28;20025;-38
2022/06/05 00:39:02;;;;;;;5.85;3.28;;;;;;;;;;5034204;28;20124;-39
2022/06/05 00:41:27;;;;;;;5.55;3.10;;;;;;;;;;5034443;28;20425;-38
2022/06/05 00:43:54;;;;;;;7.10;3.60;;;;;;;;;;5034110;28;20018;-38
2022/06/05 00:46:21;;;;;;;4.75;3.72;;;;;;;;;;5034388;28;20029;-38
2022/06/05 00:48:46;;;;;;;4.10;2.88;;;;;;;;;;5034035;28;20100;-39
2022/06/05 00:51:12;;;;;;;6.88;3.70;;;;;;;;;;5033980;28;20518;-38
2022/06/05 00:53:37;;;;;;;3.13;2.83;;;;;;;;;;5016297;28;20021;-38
2022/06/05 00:56:02;;;;;;;8.07;3.72;;;;;;;;;;5033750;28;20033;-38
2022/06/05 00:58:30;;;;;;;5.22;3.20;;;;;;;;;;5033966;28;20021;-38
2022/06/05 01:00:55;;;;;;;9.98;3.75;;;;;;;;;;5034087;28;20064;-39
2022/06/05 01:03:22;;;;;;;3.92;3.53;;;;;;;;;;5016098;28;20080;-39
2022/06/05 01:05:47;;;;;;;7.93;3.78;;;;;;;;;;5033759;28;20033;-38
2022/06/05 01:08:14;;;;;;;12.55;5.07;;;;;;;;;;5033924;28;20120;-39
2022/06/05 01:11:09;;;;;;;5.72;4.13;;;;;;;;;;5033513;28;20048;-39
2022/06/05 01:14:01;;;;;;;6.40;3.63;;;;;;;;;;4978884;28;20577;-38
2022/06/05 01:16:32;;;;;;;9.30;3.20;;;;;;;;;;5030518;28;20042;-38
2022/06/05 01:19:17;;;;;;;5.07;3.80;;;;;;;;;;5033503;28;20030;-39
2022/06/05 01:21:48;;;;;;;5.22;3.42;;;;;;;;;;5033718;28;20438;-39
2022/06/05 01:24:17;;;;;;;8.13;3.97;;;;;;;;;;5033628;28;20025;-39
2022/06/05 01:26:49;;;;;;;10.98;3.08;;;;;;;;;;5033574;28;20021;-39
2022/06/05 01:29:23;;;;;;;7.20;3.50;;;;;;;;;;5033680;28;20123;-38
2022/06/05 01:31:51;;;;;;;6.22;3.38;;;;;;;;;;5033030;28;20037;-38
2022/06/05 01:34:22;;;;;;;8.25;3.25;;;;;;;;;;5033515;28;20434;-39
2022/06/05 01:36:50;;;;;;;6.03;3.13;;;;;;;;;;5015428;28;20044;-38
2022/06/05 01:39:42;;;;;;;6.05;2.88;;;;;;;;;;5033061;28;20480;-39
2022/06/05 01:42:09;;;;;;;7.60;3.78;;;;;;;;;;5009727;28;20056;-39
2022/06/05 01:44:42;;;;;;;6.57;3.65;;;;;;;;;;5033365;28;20040;-38
2022/06/05 01:47:28;;;;;;;4.82;3.42;;;;;;;;;;5032981;28;20059;-39
2022/06/05 01:49:55;;;;;;;5.93;3.25;;;;;;;;;;5032419;28;20037;-38
2022/06/05 01:52:23;;;;;;;5.88;3.00;;;;;;;;;;5033062;28;20038;-38
2022/06/05 01:55:00;;;;;;;5.43;3.58;;;;;;;;;;5032824;28;20045;-38
2022/06/05 01:57:26;;;;;;;6.93;4.15;;;;;;;;;;5032846;28;20034;-38
2022/06/05 01:59:57;;;;;;;10.93;5.03;;;;;;;;;;5032680;28;20021;-39
2022/06/05 02:02:27;;;;;;;6.57;3.13;;;;;;;;;;5032696;28;20632;-38
2022/06/05 02:05:00;;;;;;;6.53;3.38;;;;;;;;;;5032519;28;20095;-38
2022/06/05 02:07:32;;;;;;;7.07;2.80;;;;;;;;;;5032805;28;20044;-38
2022/06/05 02:10:30;;;;;;;7.00;3.58;;;;;;;;;;5032655;28;20072;-38
2022/06/05 02:12:57;;;;;;;6.72;3.13;;;;;;;;;;4999090;28;20068;-38
2022/06/05 02:15:22;;;;;;;6.05;3.45;;;;;;;;;;5031184;28;20028;-38
2022/06/05 02:17:48;;;;;;;5.95;3.83;;;;;;;;;;5032394;28;20037;-39
2022/06/05 02:20:14;;;;;;;4.45;3.40;;;;;;;;;;5032471;28;20028;-39
2022/06/05 02:22:45;;;;;;;10.45;3.83;;;;;;;;;;5032162;28;20025;-38
2022/06/05 02:25:10;;;;;;;5.60;3.88;;;;;;;;;;5032248;28;20119;-39
2022/06/05 02:27:36;;;;;;;7.10;3.60;;;;;;;;;;4998119;28;20583;-38
2022/06/05 02:30:02;;;;;;;4.72;4.05;;;;;;;;;;5031969;28;20120;-38
2022/06/05 02:32:53;;;;;;;6.03;3.92;;;;;;;;;;5032119;28;20387;-38
2022/06/05 02:35:18;;;;;;;7.00;4.30;;;;;;;;;;5032316;28;20035;-38
2022/06/05 02:37:53;;;;;;;8.40;4.90;;;;;;;;;;5031876;28;20021;-38
2022/06/05 02:40:21;;;;;;;7.70;4.20;;;;;;;;;;5014318;28;20464;-38
2022/06/05 02:43:07;;;;;;;5.47;4.13;;;;;;;;;;5014006;28;20380;-39
2022/06/05 02:45:45;;;;;;;11.02;4.85;;;;;;;;;;5032001;28;20076;-38
2022/06/05 02:48:14;;;;;;;6.60;4.28;;;;;;;;;;5032106;28;20025;-38
2022/06/05 02:50:43;;;;;;;11.25;4.63;;;;;;;;;;5031691;28;20155;-39
2022/06/05 02:53:09;;;;;;;7.50;4.93;;;;;;;;;;5031778;28;20033;-39
2022/06/05 02:55:35;;;;;;;5.93;3.53;;;;;;;;;;5031836;28;20107;-39
2022/06/05 02:58:00;;;;;;;14.27;4.35;;;;;;;;;;5031589;28;20072;-39
2022/06/05 03:00:27;;;;;;;7.20;4.32;;;;;;;;;;5031644;28;20126;-40
2022/06/05 03:05:38;;;;;;;6.70;4.65;;;;;;;;;;5031606;28;20121;-39
2022/06/05 03:08:04;;;;;;;6.43;5.30;;;;;;;;;;5031575;28;20018;-38
2022/06/05 03:10:29;;;;;;;7.03;4.30;;;;;;;;;;5031343;28;20572;-39
2022/06/05 03:12:55;;;;;;;8.63;4.50;;;;;;;;;;5031402;28;20311;-39
2022/06/05 03:15:20;;;;;;;6.95;4.15;;;;;;;;;;5031424;28;20056;-39
2022/06/05 03:17:46;;;;;;;5.75;3.35;;;;;;;;;;5031388;28;20499;-39
2022/06/05 03:20:13;;;;;;;5.13;3.63;;;;;;;;;;5031674;28;20037;-38
2022/06/05 03:22:38;;;;;;;8.73;4.30;;;;;;;;;;5031327;28;20021;-38
2022/06/05 03:25:04;;;;;;;7.35;4.78;;;;;;;;;;5031513;28;20033;-39
2022/06/05 03:27:31;;;;;;;7.88;3.95;;;;;;;;;;5031297;28;20105;-38
2022/06/05 03:29:57;;;;;;;5.80;4.05;;;;;;;;;;5031438;28;20037;-38
2022/06/05 03:32:23;;;;;;;13.32;5.45;;;;;;;;;;5031249;28;20030;-39
2022/06/05 03:34:48;;;;;;;6.63;4.28;;;;;;;;;;5031096;28;20040;-39
2022/06/05 03:37:14;;;;;;;8.65;4.47;;;;;;;;;;5035356;28;20033;-39
2022/06/05 03:39:39;;;;;;;8.10;5.03;;;;;;;;;;5038006;28;20037;-39
2022/06/05 03:42:06;;;;;;;6.60;3.88;;;;;;;;;;5037629;28;20083;-39
2022/06/05 03:44:35;;;;;;;7.10;4.40;;;;;;;;;;5037766;28;20029;-38
2022/06/05 03:47:00;;;;;;;6.85;4.78;;;;;;;;;;5037481;28;20456;-38
2022/06/05 03:49:25;;;;;;;8.25;4.90;;;;;;;;;;5037763;28;20034;-38
2022/06/05 03:51:51;;;;;;;6.32;3.92;;;;;;;;;;5037752;28;20038;-39
2022/06/05 03:54:16;;;;;;;7.35;4.07;;;;;;;;;;5037687;28;20136;-38
2022/06/05 03:56:41;;;;;;;5.28;4.20;;;;;;;;;;5037891;28;20024;-39
2022/06/05 03:59:07;;;;;;;9.95;4.57;;;;;;;;;;5037638;28;20420;-38
2022/06/05 04:01:32;;;;;;;7.85;3.58;;;;;;;;;;5037800;28;20025;-38
2022/06/05 04:03:58;;;;;;;6.20;3.58;;;;;;;;;;5037503;28;20407;-39
2022/06/05 04:06:28;;;;;;;7.43;4.30;;;;;;;;;;5037503;28;20376;-39
2022/06/05 04:08:57;;;;;;;8.88;3.78;;;;;;;;;;5037430;28;20432;-39
2022/06/05 04:11:23;;;;;;;5.15;3.78;;;;;;;;;;5037623;28;20041;-38
2022/06/05 04:13:48;;;;;;;8.55;3.60;;;;;;;;;;5037706;28;20479;-39
2022/06/05 04:16:16;;;;;;;10.80;4.25;;;;;;;;;;5037391;28;20460;-38
2022/06/05 04:18:42;;;;;;;7.57;4.45;;;;;;;;;;5037473;28;20400;-39
2022/06/05 04:21:09;;;;;;;7.05;3.63;;;;;;;;;;5037675;28;20144;-38
2022/06/05 04:23:35;;;;;;;10.63;4.47;;;;;;;;;;5037258;28;20034;-39
2022/06/05 04:26:01;;;;;;;10.10;5.18;;;;;;;;;;5037296;28;20044;-38
2022/06/05 04:28:27;;;;;;;6.82;4.22;;;;;;;;;;5037355;28;20025;-39
2022/06/05 04:30:52;;;;;;;5.70;4.13;;;;;;;;;;5037300;28;20041;-38
2022/06/05 04:33:18;;;;;;;8.10;3.88;;;;;;;;;;5037373;28;20045;-38
2022/06/05 04:35:44;;;;;;;6.50;4.80;;;;;;;;;;5037139;28;20025;-38
2022/06/05 04:38:11;;;;;;;4.95;4.20;;;;;;;;;;5037265;28;20071;-39
2022/06/05 04:40:36;;;;;;;5.18;3.58;;;;;;;;;;5037283;28;20384;-39
2022/06/05 04:43:02;;;;;;;4.85;3.88;;;;;;;;;;5037067;28;20076;-39
2022/06/05 04:45:27;;;;;;;5.25;3.72;;;;;;;;;;5037459;28;20029;-38
2022/06/05 04:47:52;;;;;;;6.32;4.50;;;;;;;;;;5035102;28;20639;-39
2022/06/05 04:50:18;;;;;;;5.97;3.75;;;;;;;;;;5033890;28;20078;-39
2022/06/05 04:52:44;;;;;;;6.20;4.32;;;;;;;;;;5033789;28;20037;-39
2022/06/05 04:55:09;;;;;;;8.55;4.28;;;;;;;;;;5034187;28;20025;-38
2022/06/05 04:57:36;;;;;;;4.10;3.67;;;;;;;;;;5033950;28;20369;-39
2022/06/05 05:00:02;;;;;;;9.35;4.57;;;;;;;;;;5033861;28;20036;-38
2022/06/05 05:02:28;;;;;;;8.15;4.10;;;;;;;;;;5033835;28;20041;-39
2022/06/05 05:04:55;;;;;;;6.32;3.85;;;;;;;;;;5033550;28;20046;-38
2022/06/05 05:07:21;;;;;;;13.88;4.35;;;;;;;;;;5033687;28;20042;-39
2022/06/05 05:09:46;;;;;;;5.80;4.60;;;;;;;;;;5034216;28;20031;-39
2022/06/05 05:12:12;;;;;;;11.32;4.00;;;;;;;;;;5033525;28;20510;-39
2022/06/05 05:14:39;;;;;;;6.88;4.22;;;;;;;;;;5033869;28;20014;-39
2022/06/05 05:17:05;;;;;;;8.15;4.47;;;;;;;;;;5033590;28;20026;-39
2022/06/05 05:19:30;;;;;;;6.25;4.90;;;;;;;;;;5015688;28;20025;-38
2022/06/05 05:21:55;;;;;;;9.15;4.93;;;;;;;;;;5033444;28;20542;-39
2022/06/05 05:24:21;;;;;;;12.15;5.55;;;;;;;;;;5033718;28;20013;-39
2022/06/05 05:26:46;;;;;;;4.47;4.07;;;;;;;;;;5033279;28;20357;-39
2022/06/05 05:29:12;;;;;;;7.70;4.28;;;;;;;;;;5033632;28;20025;-39
2022/06/05 05:31:39;;;;;;;17.75;5.47;;;;;;;;;;5033191;28;20399;-39
2022/06/05 05:34:06;;;;;;;6.15;4.65;;;;;;;;;;5033141;28;20048;-38
2022/06/05 05:36:31;;;;;;;5.25;4.32;;;;;;;;;;5015602;28;20108;-39
2022/06/05 05:44:43;;;;;;;9.48;4.97;;;;;;;;;;5033178;28;20391;-39
2022/06/05 05:47:11;;;;;;;11.30;4.55;;;;;;;;;;5032995;28;20456;-39
2022/06/05 05:49:36;;;;;;;13.35;3.88;;;;;;;;;;5033058;28;20029;-39
2022/06/05 05:52:03;;;;;;;8.75;5.05;;;;;;;;;;5032767;28;20055;-39
2022/06/05 05:54:28;;;;;;;7.35;4.30;;;;;;;;;;5032891;28;20102;-38
2022/06/05 05:56:54;;;;;;;7.15;4.85;;;;;;;;;;5032764;28;20198;-39
2022/06/05 05:59:19;;;;;;;10.13;5.55;;;;;;;;;;5032736;28;20037;-39
2022/06/05 06:01:45;;;;;;;4.88;3.58;;;;;;;;;;5032683;28;20076;-39
2022/06/05 06:04:11;;;;;;;6.85;4.78;;;;;;;;;;5032610;28;20045;-39
2022/06/05 06:06:39;;;;;;;6.65;4.70;;;;;;;;;;5032755;28;20033;-39
2022/06/05 06:09:05;;;;;;;11.55;4.75;;;;;;;;;;5032752;28;20041;-39
2022/06/05 06:11:30;;;;;;;5.68;4.40;;;;;;;;;;5032717;28;20045;-39
2022/06/05 06:13:56;;;;;;;5.68;4.50;;;;;;;;;;5032453;28;20029;-38
2022/06/05 06:16:21;;;;;;;8.30;4.72;;;;;;;;;;5032681;28;20029;-39
2022/06/05 06:18:47;;;;;;;5.07;4.47;;;;;;;;;;5032578;28;20025;-39
2022/06/05 06:21:13;;;;;;;7.28;4.53;;;;;;;;;;5014668;28;20034;-39
2022/06/05 06:23:39;;;;;;;8.52;4.55;;;;;;;;;;5032269;28;20475;-39
2022/06/05 06:26:05;;;;;;;5.30;4.35;;;;;;;;;;5032570;28;20087;-39
2022/06/05 06:28:30;;;;;;;7.82;5.13;;;;;;;;;;5032152;28;20021;-39
2022/06/05 06:30:56;;;;;;;6.50;4.38;;;;;;;;;;5032024;28;20048;-39
2022/06/05 06:33:22;;;;;;;7.05;5.03;;;;;;;;;;5032165;28;20480;-39
2022/06/05 06:35:48;;;;;;;7.88;5.03;;;;;;;;;;5032028;28;20026;-39
2022/06/05 06:38:13;;;;;;;10.30;5.78;;;;;;;;;;5032037;28;20060;-39
2022/06/05 06:40:40;;;;;;;11.10;4.95;;;;;;;;;;5032219;28;20053;-38
2022/06/05 06:43:05;;;;;;;13.57;5.43;;;;;;;;;;5031960;28;20282;-38
2022/06/05 06:45:31;;;;;;;8.88;5.35;;;;;;;;;;5032118;28;20431;-39
2022/06/05 06:47:56;;;;;;;5.65;4.20;;;;;;;;;;5032054;28;20022;-39
2022/06/05 06:50:22;;;;;;;11.05;5.90;;;;;;;;;;5031784;28;20525;-38
2022/06/05 06:52:47;;;;;;;11.15;5.70;;;;;;;;;;5031959;28;20033;-38
2022/06/05 06:55:15;;;;;;;8.93;5.60;;;;;;;;;;5031777;28;20059;-39
2022/06/05 06:57:41;;;;;;;13.65;5.63;;;;;;;;;;5031826;28;20029;-39
2022/06/05 07:00:07;;;;;;;13.55;5.63;;;;;;;;;;5031476;28;20069;-39
2022/06/05 07:02:33;;;;;;;13.82;5.95;;;;;;;;;;5031547;28;20099;-39
2022/06/05 07:04:58;;;;;;;12.57;5.20;;;;;;;;;;5031565;28;20030;-39
2022/06/05 07:07:24;;;;;;;7.65;4.85;;;;;;;;;;5031527;28;20037;-39
2022/06/05 07:09:49;;;;;;;8.18;5.07;;;;;;;;;;5031550;28;20450;-39
2022/06/05 07:12:17;;;;;;;11.45;6.28;;;;;;;;;;5030657;28;20025;-39
2022/06/05 07:14:43;;;;;;;6.38;5.03;;;;;;;;;;5031409;28;20034;-39
2022/06/05 07:17:08;;;;;;;12.07;5.10;;;;;;;;;;5031679;28;20029;-39
2022/06/05 07:19:34;;;;;;;10.50;5.38;;;;;;;;;;5031325;28;20504;-39
2022/06/05 07:21:59;;;;;;;9.23;5.78;;;;;;;;;;5031539;28;20021;-39
2022/06/05 07:24:25;;;;;;;6.90;4.78;;;;;;;;;;5031405;28;20424;-39
2022/06/05 07:26:50;;;;;;;11.02;7.10;;;;;;;;;;5031455;28;20017;-39
2022/06/05 07:29:16;;;;;;;8.57;6.03;;;;;;;;;;5031250;28;20064;-41
2022/06/05 07:31:41;;;;;;;9.95;6.88;;;;;;;;;;5031218;28;20057;-39
2022/06/05 07:34:08;;;;;;;7.45;5.40;;;;;;;;;;5031207;28;20100;-39
2022/06/05 07:36:34;;;;;;;14.63;6.05;;;;;;;;;;5031277;28;20026;-39
2022/06/05 07:39:02;;;;;;;7.95;6.03;;;;;;;;;;5031452;28;20376;-39
2022/06/05 07:41:32;;;;;;;7.45;5.68;;;;;;;;;;5031043;28;20032;-39
2022/06/05 07:43:59;;;;;;;8.82;6.07;;;;;;;;;;5031092;28;20083;-39
2022/06/05 07:46:24;;;;;;;14.68;5.35;;;;;;;;;;5031208;28;20022;-38
2022/06/05 07:48:49;;;;;;;11.50;5.85;;;;;;;;;;5030928;28;20030;-39
2022/06/05 07:56:45;;;;;;;13.50;6.82;;;;;;;;;;5030949;28;20112;-39
2022/06/05 07:59:11;;;;;;;7.28;6.25;;;;;;;;;;5030974;28;20108;-39
2022/06/05 08:01:36;;;;;;;13.93;6.28;;;;;;;;;;5031314;28;20136;-39
2022/06/05 08:04:03;;;;;;;15.63;5.97;;;;;;;;;;5030819;28;20162;-39
2022/06/05 08:06:28;;;;;;;10.52;6.03;;;;;;;;;;5031060;28;20079;-39
2022/06/05 08:08:54;;;;;;;8.27;5.80;;;;;;;;;;4996854;28;20018;-38
2022/06/05 08:11:20;;;;;;;12.88;6.60;;;;;;;;;;5030740;28;20040;-38
2022/06/05 08:13:45;;;;;;;9.13;7.10;;;;;;;;;;5030881;28;20026;-38
2022/06/05 08:16:12;;;;;;;9.50;6.53;;;;;;;;;;5030924;28;20458;-38
2022/06/05 08:18:38;;;;;;;8.73;6.28;;;;;;;;;;5030829;28;20029;-38
2022/06/05 08:21:04;;;;;;;12.50;7.22;;;;;;;;;;5012963;28;20037;-38
2022/06/05 08:23:30;;;;;;;10.93;7.07;;;;;;;;;;5033156;28;20018;-38
2022/06/05 08:25:56;;;;;;;8.75;5.57;;;;;;;;;;5034560;28;20541;-40
2022/06/05 08:28:25;;;;;;;9.98;6.03;;;;;;;;;;5034623;28;20056;-39
2022/06/05 08:30:53;;;;;;;10.50;6.13;;;;;;;;;;5034561;28;20038;-39
2022/06/05 08:33:19;;;;;;;9.68;6.38;;;;;;;;;;5034439;28;20021;-39
2022/06/05 08:35:46;;;;;;;16.38;8.77;;;;;;;;;;5034103;28;20035;-39
2022/06/05 08:41:28;;;;;;;17.17;7.57;;;;;;;;;;5034150;28;20033;-40
2022/06/05 08:43:56;;;;;;;10.23;6.65;;;;;;;;;;5034127;28;20025;-39
2022/06/05 08:46:26;;;;;;;14.23;7.85;;;;;;;;;;5034181;28;20105;-39
2022/06/05 08:48:54;;;;;;;17.20;9.15;;;;;;;;;;5016388;28;20113;-38
2022/06/05 08:51:20;;;;;;;11.65;7.65;;;;;;;;;;5033971;28;20090;-39
2022/06/05 08:53:49;;;;;;;13.65;6.72;;;;;;;;;;5033855;28;20140;-39
2022/06/05 08:56:18;;;;;;;18.70;7.90;;;;;;;;;;5034288;28;20025;-39
2022/06/05 08:58:46;;;;;;;9.68;7.30;;;;;;;;;;5033985;28;20095;-39
2022/06/05 09:01:21;;;;;;;14.02;7.75;;;;;;;;;;5033753;28;20026;-39
2022/06/05 09:04:13;;;;;;;11.57;6.90;;;;;;;;;;5033651;28;20526;-39
2022/06/05 09:06:41;;;;;;;13.75;7.57;;;;;;;;;;5010484;28;20033;-40
2022/06/05 09:09:11;;;;;;;14.60;10.00;;;;;;;;;;5033647;28;20025;-39
2022/06/05 09:11:56;;;;;;;17.40;8.18;;;;;;;;;;5033676;28;20041;-39
2022/06/05 09:14:34;;;;;;;12.60;7.30;;;;;;;;;;5022853;28;20492;-41
2022/06/05 09:17:02;;;;;;;10.55;7.85;;;;;;;;;;5033541;28;20041;-39
2022/06/05 09:19:30;;;;;;;11.60;7.60;;;;;;;;;;5033534;28;20023;-39
2022/06/05 09:22:08;;;;;;;11.85;7.03;;;;;;;;;;5033411;28;20076;-39
2022/06/05 09:24:37;;;;;;;15.50;6.57;;;;;;;;;;5033496;28;20021;-39
2022/06/05 09:27:11;;;;;;;16.00;8.00;;;;;;;;;;5033607;28;20353;-39
2022/06/05 09:29:43;;;;;;;11.07;7.38;;;;;;;;;;5033312;28;20395;-39
2022/06/05 09:32:31;;;;;;;10.90;7.15;;;;;;;;;;5033196;28;20041;-39
2022/06/05 09:35:06;;;;;;;16.92;9.00;;;;;;;;;;5032561;28;20033;-39
2022/06/05 09:37:39;;;;;;;8.93;7.38;;;;;;;;;;5033302;28;20116;-39
2022/06/05 09:40:37;;;;;;;16.95;7.53;;;;;;;;;;5033253;28;20026;-39
2022/06/05 09:43:03;;;;;;;16.17;7.47;;;;;;;;;;4999480;28;20045;-39
2022/06/05 09:45:43;;;;;;;16.05;7.78;;;;;;;;;;5033134;28;20457;-39
2022/06/05 09:48:17;;;;;;;15.25;8.05;;;;;;;;;;5032987;28;20033;-39
2022/06/05 09:50:43;;;;;;;11.88;7.80;;;;;;;;;;5033122;28;20352;-39
2022/06/05 09:53:12;;;;;;;15.55;9.48;;;;;;;;;;5033100;28;20013;-39
2022/06/05 09:55:41;;;;;;;16.95;7.32;;;;;;;;;;5033267;28;20664;-39
2022/06/05 09:58:24;;;;;;;12.43;6.57;;;;;;;;;;5032948;28;20412;-39
2022/06/05 10:00:53;;;;;;;10.18;7.15;;;;;;;;;;5032856;28;20026;-39
2022/06/05 10:03:20;;;;;;;14.70;6.97;;;;;;;;;;5032545;28;20544;-39
2022/06/05 10:06:06;;;;;;;13.18;7.57;;;;;;;;;;5032743;28;20033;-39
2022/06/05 10:08:52;;;;;;;14.25;6.68;;;;;;;;;;5001731;28;20553;-39
2022/06/05 10:11:20;;;;;;;9.80;7.05;;;;;;;;;;5001341;28;20470;-39
2022/06/05 10:13:57;;;;;;;17.65;6.60;;;;;;;;;;5032873;28;20022;-39
2022/06/05 10:16:45;;;;;;;12.88;7.43;;;;;;;;;;5032470;28;20021;-39
2022/06/05 10:19:13;;;;;;;9.30;6.43;;;;;;;;;;5032324;28;20030;-39
2022/06/05 10:21:41;;;;;;;16.35;6.55;;;;;;;;;;5032669;28;20375;-39
2022/06/05 10:24:17;;;;;;;13.77;5.97;;;;;;;;;;5032343;28;20087;-39
2022/06/05 10:26:48;;;;;;;9.82;6.57;;;;;;;;;;5032265;28;20033;-39
2022/06/05 10:29:24;;;;;;;15.00;6.40;;;;;;;;;;5032477;28;20029;-39
2022/06/05 10:32:09;;;;;;;6.40;5.05;;;;;;;;;;5031938;28;20496;-40
2022/06/05 10:34:34;;;;;;;12.20;5.65;;;;;;;;;;5032241;28;20029;-39
2022/06/05 10:37:12;;;;;;;10.02;6.53;;;;;;;;;;5032117;28;20017;-38
2022/06/05 10:39:47;;;;;;;11.88;5.97;;;;;;;;;;5014536;28;20585;-39
2022/06/05 10:42:12;;;;;;;9.18;5.45;;;;;;;;;;5032066;28;20112;-39
2022/06/05 10:44:46;;;;;;;12.77;5.80;;;;;;;;;;5031921;28;20100;-39
2022/06/05 10:47:14;;;;;;;13.23;5.78;;;;;;;;;;5030887;28;20034;-40
2022/06/05 10:49:49;;;;;;;13.15;5.40;;;;;;;;;;5031925;28;20013;-39
2022/06/05 10:52:35;;;;;;;11.25;5.40;;;;;;;;;;5031740;28;20508;-39
2022/06/05 10:55:20;;;;;;;10.07;6.72;;;;;;;;;;5014114;28;20484;-40
2022/06/05 10:57:49;;;;;;;9.60;5.63;;;;;;;;;;5014122;28;20044;-39
2022/06/05 11:00:18;;;;;;;13.48;4.50;;;;;;;;;;5031584;28;20021;-41
2022/06/05 11:03:02;;;;;;;7.45;4.78;;;;;;;;;;5031480;28;20025;-39
2022/06/05 11:05:52;;;;;;;9.73;4.85;;;;;;;;;;5031769;28;20112;-39
2022/06/05 11:08:41;;;;;;;8.57;5.25;;;;;;;;;;5031695;28;20021;-39
2022/06/05 11:14:08;;;;;;;10.52;5.13;;;;;;;;;;5031386;28;20041;-38
2022/06/05 11:16:34;;;;;;;;;;;;;;;;;;5031843;28;20483;-38
2022/06/05 11:19:08;;;;;;;8.50;5.38;;;;;;;;;;5031400;28;19909;-38
2022/06/05 11:21:33;;;;;;;;;;;;;;;;;;5031748;28;20037;-39
2022/06/05 11:23:59;;;;;;;22.77;6.32;;;;;;;;;;5031377;28;19909;-39
2022/06/05 11:26:25;;;;;;;11.10;6.22;;;;;;;;;;5031309;28;20025;-39
2022/06/05 11:29:04;;;;;;;12.38;5.95;;;;;;;;;;5031241;28;20040;-38
2022/06/05 11:31:36;;;;;;;8.63;5.53;;;;;;;;;;5031101;28;20049;-39
2022/06/05 11:34:17;;;;;;;17.25;5.57;;;;;;;;;;5031250;28;20053;-38
2022/06/05 11:36:52;;;;;;;8.95;5.13;;;;;;;;;;5031696;28;20606;-39
2022/06/05 11:39:21;;;;;;;13.80;6.63;;;;;;;;;;5031236;28;20128;-39
2022/06/05 11:41:59;;;;;;;14.52;6.18;;;;;;;;;;5031212;28;20018;-39
2022/06/05 11:44:37;;;;;;;9.13;6.03;;;;;;;;;;5031070;28;20522;-39
2022/06/05 11:47:07;;;;;;;13.93;5.57;;;;;;;;;;5030974;28;20025;-39
2022/06/05 11:49:33;;;;;;;8.32;5.85;;;;;;;;;;5031163;28;20021;-38
2022/06/05 11:52:07;;;;;;;11.40;7.00;;;;;;;;;;5030869;28;20033;-39
2022/06/05 11:54:44;;;;;;;21.17;6.35;;;;;;;;;;5031147;28;20074;-39
2022/06/05 11:57:16;;;;;;;9.07;6.13;;;;;;;;;;5031219;28;20120;-39
2022/06/05 11:59:51;;;;;;;7.22;5.60;;;;;;;;;;5035089;28;20026;-38
2022/06/05 12:02:22;;;;;;;8.43;6.97;;;;;;;;;;5033699;28;20042;-40
2022/06/05 12:04:56;;;;;;;10.20;5.93;;;;;;;;;;5034775;28;20049;-38
2022/06/05 12:07:24;;;;;;;11.88;6.22;;;;;;;;;;5034840;28;20446;-39
2022/06/05 12:09:53;;;;;;;7.82;5.47;;;;;;;;;;5034789;28;20040;-39
2022/06/05 12:12:22;;;;;;;9.75;5.95;;;;;;;;;;5034747;28;20483;-39
2022/06/05 12:14:55;;;;;;;10.43;6.65;;;;;;;;;;5034839;28;20017;-39
2022/06/05 12:17:21;;;;;;;8.68;6.13;;;;;;;;;;5034808;28;20032;-38
2022/06/05 12:19:52;;;;;;;12.55;5.50;;;;;;;;;;5033250;28;20026;-39
2022/06/05 12:22:22;;;;;;;12.82;5.88;;;;;;;;;;5034597;28;20044;-38
2022/06/05 12:24:57;;;;;;;10.98;5.95;;;;;;;;;;5034588;28;20087;-38
2022/06/05 12:27:22;;;;;;;17.88;6.30;;;;;;;;;;5034890;28;20041;-39
2022/06/05 12:30:06;;;;;;;10.65;5.50;;;;;;;;;;5034471;28;20493;-39
2022/06/05 12:32:32;;;;;;;18.95;8.18;;;;;;;;;;5034431;28;20116;-39
2022/06/05 12:35:10;;;;;;;9.07;5.28;;;;;;;;;;5033029;28;20120;-39
2022/06/05 12:37:38;;;;;;;9.73;5.97;;;;;;;;;;5034393;28;20087;-38
2022/06/05 12:40:05;;;;;;;11.85;5.20;;;;;;;;;;5034202;28;20030;-38
2022/06/05 12:42:37;;;;;;;12.48;6.10;;;;;;;;;;5034192;28;20044;-39
2022/06/05 12:45:05;;;;;;;16.65;6.95;;;;;;;;;;5016816;28;20036;-39
2022/06/05 12:47:50;;;;;;;15.02;5.85;;;;;;;;;;5034174;28;20014;-39
2022/06/05 12:50:35;;;;;;;10.05;4.28;;;;;;;;;;5016300;28;20057;-39
2022/06/05 12:53:10;;;;;;;7.90;5.65;;;;;;;;;;5033930;28;20121;-39
2022/06/05 12:55:55;;;;;;;13.68;4.93;;;;;;;;;;5034041;28;20034;-39
2022/06/05 12:58:29;;;;;;;16.30;5.65;;;;;;;;;;5023322;28;20382;-39
2022/06/05 13:01:05;;;;;;;11.75;3.75;;;;;;;;;;5033897;28;20083;-39
2022/06/05 13:03:49;;;;;;;14.23;4.35;;;;;;;;;;5033623;28;20060;-39
2022/06/05 13:06:47;;;;;;;6.47;3.60;;;;;;;;;;5033774;28;20037;-40
2022/06/05 13:09:36;;;;;;;11.88;5.63;;;;;;;;;;4992745;28;20044;-38
2022/06/05 13:12:04;;;;;;;12.50;4.63;;;;;;;;;;5033693;28;20685;-39
2022/06/05 13:14:45;;;;;;;12.80;4.80;;;;;;;;;;5033971;28;20056;-39
2022/06/05 13:17:11;;;;;;;15.65;3.67;;;;;;;;;;5033570;28;20087;-39
2022/06/05 13:19:57;;;;;;;11.85;4.50;;;;;;;;;;5033567;28;20025;-39
2022/06/05 13:22:25;;;;;;;8.20;3.90;;;;;;;;;;5033523;28;20033;-39
2022/06/05 13:25:20;;;;;;;15.35;4.55;;;;;;;;;;5015672;28;20074;-39
2022/06/05 13:27:53;;;;;;;5.40;3.63;;;;;;;;;;5033365;28;20037;-38
2022/06/05 13:30:21;;;;;;;5.85;3.90;;;;;;;;;;5033297;28;20086;-39
2022/06/05 13:32:50;;;;;;;7.47;4.13;;;;;;;;;;5033155;28;20037;-38
2022/06/05 13:35:35;;;;;;;5.38;3.35;;;;;;;;;;5033517;28;20124;-39
2022/06/05 13:38:22;;;;;;;6.55;3.45;;;;;;;;;;5033163;28;20034;-39
2022/06/05 13:40:58;;;;;;;7.97;4.35;;;;;;;;;;5033094;28;20026;-39
2022/06/05 13:43:24;;;;;;;;;;;;;;;;;;5033558;28;20061;-39
2022/06/05 13:45:51;;;;;;;11.52;4.43;;;;;;;;;;5031785;28;19909;-38
2022/06/05 13:48:22;;;;;;;8.88;4.63;;;;;;;;;;5033067;28;20060;-38
2022/06/05 13:51:06;;;;;;;14.60;4.20;;;;;;;;;;5033071;28;20068;-38
2022/06/05 13:53:37;;;;;;;13.40;3.88;;;;;;;;;;5033049;28;20625;-38
2022/06/05 13:56:19;;;;;;;16.42;4.63;;;;;;;;;;5032877;28;20033;-39
2022/06/05 13:58:57;;;;;;;6.88;4.13;;;;;;;;;;5033138;28;20499;-38
2022/06/05 14:01:23;;;;;;;11.07;4.38;;;;;;;;;;5033014;28;20056;-38
2022/06/05 14:03:54;;;;;;;11.68;4.40;;;;;;;;;;5032585;28;20045;-38
2022/06/05 14:06:37;;;;;;;8.35;4.60;;;;;;;;;;5032653;28;20492;-38
2022/06/05 14:09:10;;;;;;;6.18;4.55;;;;;;;;;;5032650;28;20050;-39
2022/06/05 14:11:40;;;;;;;8.20;3.85;;;;;;;;;;5032564;28;20601;-38
2022/06/05 14:14:06;;;;;;;9.05;4.50;;;;;;;;;;5032471;28;20029;-39
2022/06/05 14:16:39;;;;;;;9.40;3.92;;;;;;;;;;5032472;28;20479;-38
2022/06/05 14:19:16;;;;;;;14.20;4.53;;;;;;;;;;5032765;28;20029;-39
2022/06/05 14:21:43;;;;;;;7.93;4.28;;;;;;;;;;5014707;28;20071;-38
2022/06/05 14:24:15;;;;;;;8.35;4.72;;;;;;;;;;5014584;28;20366;-39
2022/06/05 14:26:45;;;;;;;18.65;4.72;;;;;;;;;;5032335;28;20026;-38
2022/06/05 14:29:20;;;;;;;5.82;3.95;;;;;;;;;;5032043;28;20029;-39
2022/06/05 14:32:05;;;;;;;12.57;4.40;;;;;;;;;;5014295;28;20487;-39
2022/06/05 14:34:33;;;;;;;7.40;4.40;;;;;;;;;;5032064;28;20553;-38
2022/06/05 14:37:19;;;;;;;9.50;3.50;;;;;;;;;;5032059;28;20021;-39
2022/06/05 14:39:50;;;;;;;5.07;2.78;;;;;;;;;;5031603;28;20049;-39
2022/06/05 14:42:16;;;;;;;11.35;4.45;;;;;;;;;;5032061;28;20108;-38
2022/06/05 14:44:52;;;;;;;5.80;2.60;;;;;;;;;;5032024;28;20541;-38
2022/06/05 14:47:42;;;;;;;5.75;3.30;;;;;;;;;;5032042;28;20507;-38
2022/06/05 14:50:24;;;;;;;7.18;2.67;;;;;;;;;;5014249;28;20037;-40
2022/06/05 14:52:56;;;;;;;6.13;3.28;;;;;;;;;;5031946;28;20563;-38
2022/06/05 14:58:10;;;;;;;7.88;3.78;;;;;;;;;;5031747;28;20025;-39
2022/06/05 15:00:50;;;;;;;10.68;3.03;;;;;;;;;;5031777;28;20025;-38
2022/06/05 15:03:16;;;;;;;4.55;2.63;;;;;;;;;;5031499;28;20128;-38
2022/06/05 15:05:43;;;;;;;4.55;2.35;;;;;;;;;;5031709;28;20113;-39
2022/06/05 15:08:15;;;;;;;5.97;3.10;;;;;;;;;;5013840;28;20047;-39
2022/06/05 15:11:04;;;;;;;10.00;2.90;;;;;;;;;;5031708;28;20480;-39
2022/06/05 15:13:44;;;;;;;8.00;2.90;;;;;;;;;;5031101;28;20519;-39
2022/06/05 15:16:21;;;;;;;5.68;3.05;;;;;;;;;;5031515;28;20060;-39
2022/06/05 15:18:50;;;;;;;6.03;2.95;;;;;;;;;;5031401;28;20061;-39
2022/06/05 15:21:28;;;;;;;4.47;2.40;;;;;;;;;;5031498;28;20025;-40